Time;durP1;ratioP1;P1;durP2;ratioP2;P2;SDS_P1;SDS_P2;PMS_P1;PMS_P2;Temp;Humidity;BMP_temperature;BMP_pressure;BME280_temperature;BME280_humidity;BME280_pressure;Samples;Min_cycle;Max_cycle;Signal;HPM_P1;HPM_P2
2022/01/14 00:00:00;;;;;;;31.00;11.97;;;;;;;-2.57;80.15;100658.31;4997353;28;20163;-83
2022/01/14 00:02:26;;;;;;;32.50;13.60;;;;;;;-3.05;79.81;100560.34;4995514;28;20171;-82
2022/01/14 00:04:51;;;;;;;25.47;9.70;;;;;;;-4.78;79.40;100246.72;4996917;28;20233;-82
2022/01/14 00:07:17;;;;;;;33.37;13.47;;;;;;;-2.53;79.92;100643.09;4998947;28;20163;-82
2022/01/14 00:09:42;;;;;;;33.57;12.20;;;;;;;-5.79;79.83;100114.72;4997898;28;20156;-82
2022/01/14 00:12:16;;;;;;;25.43;10.47;;;;;;;-2.60;80.08;100656.38;4998806;28;20239;-83
2022/01/14 00:14:45;;;;;;;31.02;12.52;;;;;;;-2.65;79.94;100620.28;5001229;28;20187;-81
2022/01/14 00:17:15;;;;;;;25.35;10.82;;;;;;;-2.51;80.01;100659.03;4999731;28;20175;-82
2022/01/14 00:19:42;;;;;;;35.55;15.00;;;;;;;-2.53;79.88;100653.88;4999296;28;20218;-81
2022/01/14 00:22:13;;;;;;;32.92;13.07;;;;;;;-2.49;80.69;100651.06;4998488;28;20187;-82
2022/01/14 00:33:16;;;;;;;25.83;11.60;;;;;;;-2.74;81.12;100603.47;4978925;28;20290;-82
2022/01/14 00:35:42;;;;;;;24.83;9.88;;;;;;;-2.47;81.54;100661.13;4972918;28;20198;-82
2022/01/14 00:38:09;;;;;;;31.67;11.77;;;;;;;-2.39;81.08;100663.78;4973308;28;20231;-83
2022/01/14 00:40:35;;;;;;;39.03;13.48;;;;;;;-2.83;80.21;100603.31;4972709;28;20620;-82
2022/01/14 00:43:01;;;;;;;22.23;9.77;;;;;;;-3.94;79.66;100373.41;4973753;28;20192;-82
2022/01/14 00:45:27;;;;;;;25.07;9.83;;;;;;;-2.70;78.81;100575.88;4957575;28;20215;-82
2022/01/14 00:47:52;;;;;;;28.20;10.03;;;;;;;-3.00;78.54;100556.81;4982884;28;20606;-82
2022/01/14 00:50:19;;;;;;;28.77;12.53;;;;;;;-3.08;78.01;100527.78;4981644;28;20171;-82
2022/01/14 00:52:46;;;;;;;33.85;13.25;;;;;;;-2.25;77.39;100647.13;4982115;28;20202;-82
2022/01/14 00:55:15;;;;;;;38.22;14.48;;;;;;;-2.17;76.99;100654.69;4981102;28;20246;-82
2022/01/14 01:00:22;;;;;;;23.42;9.80;;;;;;;-2.14;76.66;100664.09;4982149;28;20222;-82
2022/01/14 01:02:48;;;;;;;29.85;11.35;;;;;;;-2.13;76.57;100653.44;5000589;28;20225;-83
2022/01/14 01:05:14;;;;;;;30.07;10.77;;;;;;;-4.06;76.39;100334.91;4998901;28;20175;-82
2022/01/14 01:07:45;;;;;;;29.45;10.27;;;;;;;-2.91;77.19;100541.25;5004908;28;20251;-81
2022/01/14 01:10:11;;;;;;;32.25;12.23;;;;;;;-2.27;77.55;100666.75;5000442;28;20168;-82
2022/01/14 01:12:54;;;;;;;33.15;11.95;;;;;;;-3.41;77.22;100454.66;4995575;28;20587;-82
2022/01/14 01:15:21;;;;;;;42.55;16.88;;;;;;;-3.37;77.65;100476.56;4994243;28;20190;-82
2022/01/14 01:17:47;;;;;;;29.02;11.23;;;;;;;-2.39;78.35;100655.47;4995150;28;20156;-82
2022/01/14 01:20:18;;;;;;;33.05;12.88;;;;;;;-4.47;78.49;100303.88;4995600;28;20183;-82
2022/01/14 01:22:49;;;;;;;35.92;14.05;;;;;;;-2.42;78.16;100663.41;4996706;28;20168;-82
2022/01/14 01:25:19;;;;;;;30.83;11.02;;;;;;;-2.92;78.38;100559.28;4998226;28;20172;-81
2022/01/14 01:27:47;;;;;;;31.35;12.65;;;;;;;-2.97;78.55;100550.44;4999920;28;20176;-82
2022/01/14 01:30:27;;;;;;;23.88;9.10;;;;;;;-3.09;78.05;100523.56;5014616;28;20171;-82
2022/01/14 01:32:53;;;;;;;26.10;11.05;;;;;;;-2.36;78.25;100612.78;5001192;28;20214;-82
2022/01/14 01:35:19;;;;;;;36.80;14.13;;;;;;;-3.02;78.17;100488.88;5001033;28;20179;-82
2022/01/14 01:37:45;;;;;;;30.33;10.88;;;;;;;-3.11;79.06;100470.53;5000756;28;20251;-82
2022/01/14 01:40:11;;;;;;;28.40;11.30;;;;;;;-2.45;79.84;100613.53;5001144;28;20246;-83
2022/01/14 01:42:39;;;;;;;26.65;11.35;;;;;;;-3.84;79.67;100376.22;5002582;28;20168;-81
2022/01/14 01:45:09;;;;;;;26.30;9.80;;;;;;;-2.39;80.00;100594.34;5001080;28;20559;-82
2022/01/14 01:47:35;;;;;;;30.10;12.77;;;;;;;-4.11;79.21;100276.66;5000742;28;20167;-83
2022/01/14 01:50:11;;;;;;;31.87;13.27;;;;;;;-4.66;77.28;100126.22;4999565;28;20167;-82
2022/01/14 01:52:37;;;;;;;30.90;12.60;;;;;;;-2.29;76.88;100514.47;5013871;28;20249;-82
2022/01/14 01:55:04;;;;;;;30.47;12.10;;;;;;;-2.50;75.85;100455.06;4999374;28;20179;-82
2022/01/14 01:57:30;;;;;;;39.80;13.80;;;;;;;-2.17;76.21;100503.38;5014709;28;20569;-81
2022/01/14 01:59:55;;;;;;;35.47;13.53;;;;;;;-2.75;75.91;100406.88;4998743;28;20183;-81
2022/01/14 02:02:20;;;;;;;33.77;13.37;;;;;;;-2.77;76.25;100378.53;4999975;28;20315;-82
2022/01/14 02:04:46;;;;;;;33.93;13.03;;;;;;;-2.37;76.39;100502.81;4997729;28;20171;-82
2022/01/14 02:07:11;;;;;;;25.67;11.73;;;;;;;-3.90;77.39;100186.00;5001483;28;20183;-81
2022/01/14 02:09:37;;;;;;;32.10;13.17;;;;;;;-2.43;78.12;100482.28;5003648;28;20550;-81
2022/01/14 02:12:08;;;;;;;30.50;13.43;;;;;;;-4.80;76.95;100020.94;5003282;28;20668;-82
2022/01/14 02:19:44;;;;;;;36.97;14.27;;;;;;;-3.29;76.37;100267.03;4999010;28;20244;-81
2022/01/14 02:27:08;;;;;;;30.52;11.85;;;;;;;-1.55;74.38;100539.16;5002517;28;20226;-82
2022/01/14 02:29:34;;;;;;;32.08;13.02;;;;;;;-2.71;75.57;100351.97;4999899;28;20160;-81
2022/01/14 02:32:00;;;;;;;35.05;13.10;;;;;;;-2.28;76.27;100439.34;4998246;28;20168;-82
2022/01/14 02:34:26;;;;;;;32.97;12.90;;;;;;;-1.95;78.04;100529.00;5000242;28;20227;-81
2022/01/14 02:36:53;;;;;;;25.57;10.57;;;;;;;-3.04;78.06;100364.00;4997812;28;20182;-82
2022/01/14 02:39:20;;;;;;;34.08;12.55;;;;;;;-2.10;78.52;100530.66;4998798;28;20786;-81
2022/01/14 02:41:48;;;;;;;30.00;11.77;;;;;;;-2.99;78.68;100380.25;5013929;28;20231;-82
2022/01/14 02:44:19;;;;;;;25.55;10.85;;;;;;;-2.22;79.64;100519.38;5014067;28;20523;-81
2022/01/14 02:46:53;;;;;;;26.77;11.95;;;;;;;-2.88;79.77;100435.06;5005023;28;20239;-82
2022/01/14 02:49:20;;;;;;;34.80;13.93;;;;;;;-4.31;80.36;100188.78;5018027;28;20177;-83
2022/01/14 02:51:46;;;;;;;31.52;12.65;;;;;;;-3.09;80.48;100396.41;5006598;28;20238;-83
2022/01/14 02:54:15;;;;;;;24.03;9.87;;;;;;;-2.93;80.63;100413.84;4999382;28;20189;-82
2022/01/14 02:56:43;;;;;;;31.83;12.02;;;;;;;-5.72;79.97;99941.31;4999719;28;20170;-82
2022/01/14 02:59:10;;;;;;;37.03;12.88;;;;;;;-2.59;81.90;100499.53;4999296;28;20218;-81
2022/01/14 03:01:37;;;;;;;34.08;12.80;;;;;;;-3.23;82.99;100372.56;4999178;28;20163;-82
2022/01/14 03:04:03;;;;;;;26.60;10.63;;;;;;;-2.94;82.57;100427.84;5000373;28;20223;-82
2022/01/14 03:06:29;;;;;;;22.48;8.60;;;;;;;-2.88;82.16;100423.53;4996744;28;20203;-82
2022/01/14 03:08:57;;;;;;;30.20;10.70;;;;;;;-3.37;83.38;100354.41;4995367;28;20168;-83
2022/01/14 03:11:36;;;;;;;25.20;11.15;;;;;;;-2.96;83.59;100429.25;4995397;28;20628;-82
2022/01/14 03:14:04;;;;;;;30.80;12.35;;;;;;;-3.41;83.42;100350.72;4996336;28;20213;-82
2022/01/14 03:16:37;;;;;;;32.30;11.07;;;;;;;-3.61;82.66;100296.50;4995600;28;20230;-82
2022/01/14 03:19:09;;;;;;;27.73;10.73;;;;;;;-3.24;82.70;100335.28;4995492;28;20655;-82
2022/01/14 03:21:39;;;;;;;31.55;11.30;;;;;;;-2.40;81.37;100457.84;4995853;28;20616;-83
2022/01/14 03:27:00;;;;;;;25.00;10.55;;;;;;;-2.70;78.03;100330.56;4955628;29;20641;-82
2022/01/14 03:29:25;;;;;;;17.20;7.50;;;;;;;-1.86;76.90;100448.97;4956280;29;20179;-82
2022/01/14 03:31:52;;;;;;;23.30;8.47;;;;;;;-1.77;76.64;100436.69;4963244;29;20188;-82
2022/01/14 03:34:17;;;;;;;24.05;8.93;;;;;;;-2.39;77.15;100333.19;4964845;29;20746;-82
2022/01/14 03:36:43;;;;;;;22.53;9.30;;;;;;;-3.06;76.90;100209.44;4946142;29;20287;-81
2022/01/14 03:39:08;;;;;;;25.27;11.07;;;;;;;-3.50;77.83;100134.41;4962013;29;20169;-82
2022/01/14 03:41:34;;;;;;;28.47;11.03;;;;;;;-2.92;76.61;100234.81;4961890;29;20165;-82
2022/01/14 03:43:59;;;;;;;28.03;11.30;;;;;;;-2.54;75.90;100272.91;4960498;29;20715;-83
2022/01/14 03:46:25;;;;;;;22.80;10.00;;;;;;;-4.09;76.35;100018.19;4960691;29;20169;-82
2022/01/14 03:48:52;;;;;;;20.37;8.37;;;;;;;-2.87;77.38;100219.72;4959733;29;20211;-83
2022/01/14 03:51:19;;;;;;;23.25;8.93;;;;;;;-2.34;78.51;100332.09;4959949;29;20191;-83
2022/01/14 03:53:46;;;;;;;17.55;8.25;;;;;;;-3.23;79.25;100194.31;4957902;29;20197;-82
2022/01/14 03:56:11;;;;;;;33.20;13.82;;;;;;;-2.07;79.79;100399.53;4958132;28;20208;-82
2022/01/14 03:58:36;;;;;;;34.47;14.53;;;;;;;-2.91;79.77;100263.81;4957797;29;20567;-82
2022/01/14 04:01:02;;;;;;;34.63;14.87;;;;;;;-2.94;79.64;100253.56;4957029;29;20176;-83
2022/01/14 04:03:28;;;;;;;33.23;11.77;;;;;;;-4.73;80.26;99950.91;4980787;28;20238;-82
2022/01/14 04:05:53;;;;;;;18.80;7.33;;;;;;;-2.04;80.72;100412.28;4996466;28;20259;-83
2022/01/14 04:08:19;;;;;;;28.70;11.07;;;;;;;-3.62;80.52;100155.31;4998037;28;20159;-82
2022/01/14 04:10:45;;;;;;;27.43;10.30;;;;;;;-2.29;81.10;100377.19;4998605;28;20218;-83
2022/01/14 04:13:19;;;;;;;22.80;9.65;;;;;;;-2.18;81.48;100424.78;5007816;28;20258;-83
2022/01/14 04:15:46;;;;;;;24.92;10.63;;;;;;;-3.00;81.47;100296.78;5002411;28;20195;-82
2022/01/14 04:18:19;;;;;;;37.22;13.70;;;;;;;-3.10;82.08;100232.09;4997786;28;20166;-83
2022/01/14 04:20:49;;;;;;;35.25;15.00;;;;;;;-2.17;82.45;100404.19;4999839;28;20159;-81
2022/01/14 04:23:18;;;;;;;21.63;8.27;;;;;;;-2.76;83.11;100330.78;5000010;28;20166;-83
2022/01/14 04:25:47;;;;;;;34.20;12.68;;;;;;;-2.44;84.11;100406.16;4995924;28;20214;-83
2022/01/14 04:28:13;;;;;;;27.13;10.43;;;;;;;-2.38;84.36;100397.81;4997398;28;20175;-83
2022/01/14 04:30:39;;;;;;;35.13;13.85;;;;;;;-2.41;84.28;100386.66;4996552;28;20263;-82
2022/01/14 04:33:04;;;;;;;26.80;9.63;;;;;;;-5.37;84.82;99875.53;4997223;28;20254;-82
2022/01/14 04:35:32;;;;;;;35.20;13.87;;;;;;;-4.53;84.68;100016.63;4996273;28;20623;-82
2022/01/14 04:37:58;;;;;;;31.33;12.05;;;;;;;-2.43;84.75;100373.22;4996444;28;20171;-82
2022/01/14 04:40:24;;;;;;;25.83;9.75;;;;;;;-2.52;85.90;100373.09;4996379;28;20632;-82
2022/01/14 04:42:52;;;;;;;25.65;10.43;;;;;;;-6.23;86.30;99758.88;4995871;28;20174;-83
2022/01/14 04:45:40;;;;;;;23.27;9.10;;;;;;;-4.64;86.90;100011.22;4999042;28;20159;-83
2022/01/14 04:48:08;;;;;;;23.77;9.55;;;;;;;-2.59;88.28;100420.25;4998099;28;20168;-82
2022/01/14 04:50:34;;;;;;;30.58;11.45;;;;;;;-2.58;88.75;100376.53;4998603;28;20178;-82
2022/01/14 04:53:00;;;;;;;33.60;12.60;;;;;;;-2.56;88.60;100387.47;4997203;28;20195;-83
2022/01/14 04:55:26;;;;;;;39.47;14.07;;;;;;;-2.62;89.00;100375.28;4998062;28;20178;-83
2022/01/14 04:57:53;;;;;;;42.28;17.55;;;;;;;-3.77;89.18;100149.59;4998905;28;20203;-84
2022/01/14 05:00:24;;;;;;;37.08;14.32;;;;;;;-2.56;90.46;100373.50;5001034;28;20175;-82
2022/01/14 05:02:54;;;;;;;23.88;9.43;;;;;;;-3.28;90.60;100287.00;4999504;28;20746;-83
2022/01/14 05:05:22;;;;;;;35.95;14.35;;;;;;;-5.75;90.40;99854.69;5009887;28;20183;-83
2022/01/14 05:07:49;;;;;;;28.73;11.88;;;;;;;-2.67;90.17;100375.50;5018671;28;20186;-83
2022/01/14 05:10:48;;;;;;;34.50;12.52;;;;;;;-2.64;91.09;100375.84;5016053;28;20986;-83
2022/01/14 05:13:01;;;;;;;36.35;15.15;;;;;;;-3.97;91.84;100168.75;4997740;28;20254;-83
2022/01/14 05:15:27;;;;;;;36.13;13.35;;;;;;;-2.82;92.28;100379.66;4997998;28;20163;-81
2022/01/14 05:17:52;;;;;;;33.37;12.13;;;;;;;-2.68;91.06;100363.81;4999327;28;20170;-81
2022/01/14 05:20:18;;;;;;;34.07;12.57;;;;;;;-2.51;87.57;100366.56;5002270;28;20163;-82
2022/01/14 05:22:46;;;;;;;26.42;12.57;;;;;;;-5.46;81.77;99773.38;4999724;28;20168;-81
2022/01/14 05:25:14;;;;;;;25.08;10.43;;;;;;;-3.96;79.49;100001.50;5002631;28;20167;-83
2022/01/14 05:27:40;;;;;;;32.35;13.10;;;;;;;-3.16;80.06;100129.91;5004590;28;20222;-82
2022/01/14 05:30:08;;;;;;;20.58;9.32;;;;;;;-2.43;80.39;100301.34;4999672;28;20163;-83
2022/01/14 05:32:34;;;;;;;30.85;10.40;;;;;;;-3.89;80.27;100019.63;4997302;28;20198;-83
2022/01/14 05:34:59;;;;;;;36.57;14.67;;;;;;;-2.87;79.89;100184.16;4998108;28;20172;-83
2022/01/14 05:37:25;;;;;;;32.33;11.37;;;;;;;-5.01;79.84;99823.56;4998794;28;20226;-83
2022/01/14 05:39:50;;;;;;;23.87;9.47;;;;;;;-2.65;80.07;100227.88;4998519;28;20160;-82
2022/01/14 05:42:16;;;;;;;26.60;11.60;;;;;;;-3.63;79.25;100091.72;4997453;28;20155;-82
2022/01/14 05:44:41;;;;;;;30.33;11.03;;;;;;;-5.02;77.97;99792.19;4997764;28;20155;-82
2022/01/14 05:47:07;;;;;;;39.70;15.73;;;;;;;-1.77;77.97;100348.94;4999088;28;20159;-81
2022/01/14 05:49:34;;;;;;;123.80;45.27;;;;;;;-3.60;77.53;99995.59;5000860;28;20167;-81
2022/01/14 05:51:59;;;;;;;41.92;16.50;;;;;;;-1.65;77.76;100310.53;5003528;28;20159;-83
2022/01/14 05:54:25;;;;;;;29.57;13.37;;;;;;;-1.61;77.48;100307.63;4999675;28;20188;-81
2022/01/14 05:56:50;;;;;;;24.67;11.40;;;;;;;-2.61;76.50;100116.00;5001125;28;20167;-82
2022/01/14 05:59:17;;;;;;;27.33;10.53;;;;;;;-5.21;76.09;99660.13;5000817;28;20175;-82
2022/01/14 06:01:43;;;;;;;23.38;9.48;;;;;;;-3.88;76.37;99875.50;4981599;28;20231;-82
2022/01/14 06:04:08;;;;;;;25.55;9.55;;;;;;;-1.95;76.79;100209.81;4975420;28;20235;-82
2022/01/14 06:06:34;;;;;;;26.27;11.60;;;;;;;-2.26;76.11;100139.50;4976493;28;20203;-82
2022/01/14 06:09:01;;;;;;;20.15;8.93;;;;;;;-3.59;74.75;99888.47;4961552;28;20177;-82
2022/01/14 06:11:26;;;;;;;23.00;10.07;;;;;;;-2.69;75.10;100033.41;4964859;28;20177;-82
2022/01/14 06:13:53;;;;;;;20.90;9.67;;;;;;;-1.87;74.12;100188.31;4964381;28;20199;-81
2022/01/14 06:16:18;;;;;;;30.05;10.13;;;;;;;-2.56;74.62;100028.13;4965608;29;20168;-82
2022/01/14 06:18:44;;;;;;;23.37;10.50;;;;;;;-3.51;74.71;99880.25;4965569;28;20620;-81
2022/01/14 06:21:10;;;;;;;22.63;8.70;;;;;;;-2.62;74.67;100017.59;4965587;29;20181;-83
2022/01/14 06:23:35;;;;;;;21.90;8.80;;;;;;;-0.98;74.78;100319.28;4965313;28;20169;-81
2022/01/14 06:26:01;;;;;;;28.23;10.63;;;;;;;-1.62;73.60;100137.13;4964248;29;20169;-81
2022/01/14 06:28:27;;;;;;;24.75;10.15;;;;;;;-2.87;73.54;99929.03;4961928;28;20169;-81
2022/01/14 06:30:52;;;;;;;25.60;10.90;;;;;;;-3.46;72.87;99841.19;4962786;29;20556;-82
2022/01/14 06:33:18;;;;;;;31.20;11.30;;;;;;;-2.06;73.53;100014.34;4960509;28;20204;-82
2022/01/14 06:35:43;;;;;;;35.40;14.20;;;;;;;-2.54;73.31;99922.59;4959443;29;20164;-82
2022/01/14 06:38:10;;;;;;;22.97;9.97;;;;;;;-0.53;72.91;100267.50;4945430;28;20727;-81
2022/01/14 06:40:36;;;;;;;27.23;11.10;;;;;;;-0.34;73.07;100268.63;4966796;28;20192;-83
2022/01/14 06:43:02;;;;;;;24.00;11.03;;;;;;;-2.21;72.81;99920.19;4968410;28;20567;-83
2022/01/14 06:45:28;;;;;;;34.47;14.27;;;;;;;-0.28;72.05;100257.69;4978513;28;20183;-82
2022/01/14 06:47:53;;;;;;;21.47;10.10;;;;;;;-1.84;72.04;99981.06;4967848;28;20236;-82
2022/01/14 06:50:21;;;;;;;28.90;9.97;;;;;;;-0.62;71.74;100168.91;4973028;28;20419;-82
2022/01/14 06:52:46;;;;;;;22.97;9.83;;;;;;;-2.43;71.08;99835.34;4978427;28;20191;-84
2022/01/14 06:55:12;;;;;;;29.00;12.10;;;;;;;-2.76;70.84;99740.31;4977683;28;20447;-82
2022/01/14 06:57:37;;;;;;;23.07;10.27;;;;;;;-1.77;70.68;99912.22;4975516;28;20203;-84
2022/01/14 07:00:09;;;;;;;20.20;8.43;;;;;;;-0.13;70.52;100198.56;4965021;28;20192;-83
2022/01/14 07:02:34;;;;;;;21.23;8.87;;;;;;;0.07;70.00;100193.03;4948311;28;20229;-86
2022/01/14 07:04:59;;;;;;;25.03;10.87;;;;;;;0.21;69.50;100203.59;4957408;29;20436;-83
2022/01/14 07:07:25;;;;;;;20.10;8.97;;;;;;;0.39;69.07;100221.91;4956858;28;20858;-83
2022/01/14 07:09:57;;;;;;;21.83;10.00;;;;;;;0.34;67.92;100201.56;4979631;28;20195;-83
2022/01/14 07:12:27;;;;;;;28.63;12.73;;;;;;;-0.07;67.53;100099.63;4994612;28;20180;-82
2022/01/14 07:14:54;;;;;;;23.90;11.10;;;;;;;1.14;66.74;100289.00;4968335;28;20482;-84
2022/01/14 07:17:20;;;;;;;22.20;9.07;;;;;;;2.00;62.87;100180.47;4984025;28;20869;-85
2022/01/14 07:19:49;;;;;;;21.47;8.63;;;;;;;1.65;61.93;100112.41;4995443;28;20449;-83
2022/01/14 07:22:14;;;;;;;26.70;10.43;;;;;;;2.25;62.56;100254.34;4975170;28;20431;-83
2022/01/14 07:24:40;;;;;;;19.33;9.43;;;;;;;0.05;63.32;99992.94;4988566;28;20426;-83
2022/01/14 07:27:05;;;;;;;24.33;10.93;;;;;;;0.58;64.79;100086.81;4995369;28;20172;-83
2022/01/14 07:29:31;;;;;;;21.23;9.47;;;;;;;1.16;64.99;100149.50;4983655;28;20325;-83
2022/01/14 07:31:58;;;;;;;21.87;9.57;;;;;;;1.42;64.76;100207.66;4973274;28;20183;-84
2022/01/14 07:34:24;;;;;;;16.43;6.80;;;;;;;1.67;64.99;100238.22;4954424;28;20499;-84
2022/01/14 07:36:49;;;;;;;20.47;9.77;;;;;;;1.64;65.05;100216.34;4956156;28;20953;-84
2022/01/14 07:39:15;;;;;;;22.87;10.83;;;;;;;-0.35;64.53;99878.84;4958164;29;20176;-84
2022/01/14 07:41:40;;;;;;;19.40;8.57;;;;;;;1.46;65.91;100187.22;4952144;29;20811;-84
2022/01/14 07:44:06;;;;;;;22.03;9.33;;;;;;;-0.03;65.30;99917.56;4953937;29;20180;-84
2022/01/14 07:46:31;;;;;;;21.43;10.63;;;;;;;1.34;65.96;100140.34;4953714;28;20260;-84
2022/01/14 07:48:58;;;;;;;34.73;14.57;;;;;;;1.67;65.80;100204.16;4958174;28;20183;-84
2022/01/14 07:51:23;;;;;;;19.60;8.80;;;;;;;1.46;66.03;100151.41;4971327;28;20219;-83
2022/01/14 07:53:49;;;;;;;21.27;10.53;;;;;;;0.57;66.21;99973.00;4974576;28;20505;-84
2022/01/14 07:56:14;;;;;;;21.37;10.67;;;;;;;0.87;66.06;100011.38;4994458;28;20183;-85
2022/01/14 07:58:41;;;;;;;50.73;18.20;;;;;;;0.01;65.80;99834.97;4969567;28;20195;-85
2022/01/14 08:01:07;;;;;;;19.67;8.40;;;;;;;1.16;65.33;100014.88;4954329;28;20185;-85
2022/01/14 08:03:33;;;;;;;21.40;8.13;;;;;;;1.75;65.55;100090.03;4945353;28;20463;-84
2022/01/14 08:06:00;;;;;;;25.47;8.80;;;;;;;2.31;65.95;100147.44;4956413;29;20478;-85
2022/01/14 08:08:25;;;;;;;28.07;12.47;;;;;;;1.57;65.16;99983.59;4953773;29;20193;-86
2022/01/14 08:10:51;;;;;;;139.20;43.13;;;;;;;-0.35;64.77;99620.22;4967403;28;20443;-84
2022/01/14 08:13:16;;;;;;;21.83;9.33;;;;;;;0.58;64.93;99797.88;4974341;28;20204;-83
2022/01/14 08:15:42;;;;;;;21.97;9.07;;;;;;;2.68;64.55;100129.91;4973088;28;20271;-84
2022/01/14 08:18:09;;;;;;;20.50;9.77;;;;;;;1.72;65.23;99900.13;4973197;28;20187;-85
2022/01/14 08:20:34;;;;;;;22.17;9.80;;;;;;;2.98;65.23;100149.13;4974032;28;20202;-83
2022/01/14 08:23:00;;;;;;;34.27;15.70;;;;;;;3.12;64.72;100145.31;4974139;28;20491;-84
2022/01/14 08:25:27;;;;;;;22.13;10.57;;;;;;;1.18;64.67;99796.50;4973148;28;20176;-84
2022/01/14 08:27:52;;;;;;;18.47;8.83;;;;;;;2.86;64.39;100085.56;4972954;28;20951;-83
2022/01/14 08:30:18;;;;;;;19.77;8.63;;;;;;;3.37;64.53;100136.59;4974444;28;20427;-84
2022/01/14 08:32:43;;;;;;;18.50;9.43;;;;;;;2.43;64.25;99891.19;4974704;28;20675;-84
2022/01/14 08:35:09;;;;;;;22.07;10.27;;;;;;;2.21;64.95;99892.66;4973194;28;20247;-83
2022/01/14 08:37:39;;;;;;;17.50;8.27;;;;;;;2.29;64.40;99891.66;4978443;28;20164;-84
2022/01/14 08:40:07;;;;;;;21.73;9.67;;;;;;;3.15;64.70;100071.41;4977321;28;20235;-85
2022/01/14 08:42:32;;;;;;;27.60;10.97;;;;;;;3.22;64.69;100030.22;4976013;28;20403;-84
2022/01/14 08:44:58;;;;;;;31.93;14.60;;;;;;;3.08;63.96;100028.25;4975899;28;20462;-83
2022/01/14 08:47:23;;;;;;;22.70;10.70;;;;;;;3.14;63.91;100033.75;4981709;28;20233;-83
2022/01/14 08:49:49;;;;;;;23.53;10.27;;;;;;;2.60;64.57;99945.94;4981537;28;20179;-82
2022/01/14 08:52:15;;;;;;;19.10;8.60;;;;;;;3.68;64.89;100125.84;4978192;28;20164;-83
2022/01/14 08:54:41;;;;;;;31.63;13.60;;;;;;;3.86;65.78;100111.44;4976090;28;20626;-84
2022/01/14 08:57:07;;;;;;;24.00;9.40;;;;;;;0.34;66.39;99524.34;4976999;28;20410;-82
2022/01/14 08:59:33;;;;;;;29.27;11.77;;;;;;;3.81;65.81;100072.66;4975799;28;20415;-85
2022/01/14 09:01:59;;;;;;;23.13;10.13;;;;;;;4.23;65.25;100107.75;4973599;28;20422;-84
2022/01/14 09:04:24;;;;;;;26.63;9.93;;;;;;;1.58;65.81;99643.59;4975283;28;20708;-84
2022/01/14 09:06:50;;;;;;;24.03;11.57;;;;;;;2.72;66.60;99846.94;4976852;28;20412;-84
2022/01/14 09:09:15;;;;;;;21.70;9.20;;;;;;;1.42;66.76;99566.63;4976140;28;20228;-83
2022/01/14 09:11:41;;;;;;;27.10;12.47;;;;;;;2.16;67.73;99707.47;4976599;28;20184;-83
2022/01/14 09:14:07;;;;;;;30.57;12.67;;;;;;;3.27;67.50;99826.38;4978157;28;20227;-85
2022/01/14 09:16:33;;;;;;;27.07;11.70;;;;;;;2.61;68.45;99701.91;4978836;28;20172;-84
2022/01/14 09:18:58;;;;;;;24.80;12.03;;;;;;;4.67;69.53;100042.78;4978687;28;20923;-85
2022/01/14 09:21:24;;;;;;;23.63;10.83;;;;;;;4.16;70.05;99921.88;4977007;28;20628;-84
2022/01/14 09:24:03;;;;;;;18.83;8.90;;;;;;;4.69;70.50;100025.34;4977696;28;20172;-84
2022/01/14 09:26:29;;;;;;;18.27;8.80;;;;;;;3.06;71.09;99754.63;4977261;28;20164;-85
2022/01/14 09:28:54;;;;;;;18.77;9.27;;;;;;;4.86;71.22;100032.53;4975866;28;20431;-85
2022/01/14 09:31:20;;;;;;;18.63;9.50;;;;;;;5.01;71.46;100050.34;4976204;28;20857;-84
2022/01/14 09:33:45;;;;;;;19.77;9.47;;;;;;;3.85;72.19;99842.63;4975283;28;20263;-85
2022/01/14 09:36:11;;;;;;;22.23;9.77;;;;;;;5.11;71.69;100000.97;4976795;28;20240;-84
2022/01/14 09:38:36;;;;;;;20.13;9.70;;;;;;;4.16;71.91;99875.88;4976455;28;20171;-84
2022/01/14 09:41:02;;;;;;;26.47;10.80;;;;;;;2.12;71.39;99500.72;4975044;28;20194;-84
2022/01/14 09:43:30;;;;;;;20.10;9.23;;;;;;;4.74;70.99;99896.16;4987165;28;20188;-84
2022/01/14 09:45:56;;;;;;;18.30;8.47;;;;;;;3.43;71.47;99691.69;4994906;28;20183;-85
2022/01/14 09:48:21;;;;;;;17.97;8.87;;;;;;;1.88;71.37;99428.06;4987995;28;20506;-84
2022/01/14 09:50:47;;;;;;;18.70;9.50;;;;;;;5.43;71.37;99977.38;4974215;28;20259;-85
2022/01/14 09:53:14;;;;;;;25.03;12.53;;;;;;;3.47;70.29;99656.09;4973880;28;20207;-85
2022/01/14 09:55:41;;;;;;;30.27;14.27;;;;;;;4.40;70.38;99815.06;4979941;28;20644;-85
2022/01/14 09:58:07;;;;;;;23.47;10.83;;;;;;;3.57;69.52;99684.44;4980785;28;20418;-85
2022/01/14 10:00:34;;;;;;;19.53;10.30;;;;;;;5.29;69.34;99944.63;4979793;28;20502;-83
2022/01/14 10:02:59;;;;;;;25.47;11.73;;;;;;;5.58;69.16;99945.81;4980690;28;20282;-85
2022/01/14 10:05:38;;;;;;;20.90;10.57;;;;;;;5.56;68.54;99942.34;4980657;28;20403;-83
2022/01/14 10:08:18;;;;;;;34.07;15.00;;;;;;;5.56;68.72;99938.19;4979669;28;20171;-83
2022/01/14 10:10:46;;;;;;;23.47;11.93;;;;;;;5.97;67.83;99930.22;4982677;28;20419;-85
2022/01/14 10:13:23;;;;;;;24.30;10.60;;;;;;;5.86;67.36;99937.00;4982869;28;21102;-85
2022/01/14 10:15:59;;;;;;;27.27;12.73;;;;;;;5.15;68.72;99798.81;4982279;28;20419;-86
2022/01/14 10:18:24;;;;;;;23.40;12.00;;;;;;;5.59;67.72;99864.72;4997326;28;20467;-85
2022/01/14 10:20:50;;;;;;;20.13;9.30;;;;;;;4.55;68.45;99677.47;4982167;28;20498;-86
2022/01/14 10:23:16;;;;;;;19.70;9.93;;;;;;;3.58;69.27;99527.63;4985708;28;20179;-86
2022/01/14 10:25:55;;;;;;;21.40;9.40;;;;;;;6.11;69.62;99911.94;4983066;28;20180;-86
2022/01/14 10:28:21;;;;;;;16.13;8.07;;;;;;;2.71;71.35;99302.91;4982775;28;20160;-85
2022/01/14 10:30:49;;;;;;;15.23;7.10;;;;;;;4.63;71.10;99636.25;4983210;28;20408;-87
2022/01/14 10:33:20;;;;;;;18.93;8.23;;;;;;;5.14;71.18;99694.19;4984675;28;20451;-85
2022/01/14 10:35:47;;;;;;;15.57;8.47;;;;;;;3.88;70.71;99472.25;4984728;28;20410;-83
2022/01/14 10:38:17;;;;;;;17.13;8.60;;;;;;;4.92;71.14;99629.13;4983083;28;20415;-85
2022/01/14 10:40:51;;;;;;;28.83;11.10;;;;;;;4.84;71.45;99607.66;4999169;28;20415;-86
2022/01/14 10:43:21;;;;;;;13.07;7.00;;;;;;;4.99;71.01;99616.25;4986058;28;20791;-85
2022/01/14 10:45:48;;;;;;;11.63;5.63;;;;;;;4.75;70.98;99599.50;4989459;28;20418;-85
2022/01/14 10:48:18;;;;;;;13.40;6.27;;;;;;;6.36;70.78;99858.44;4981624;28;20404;-85
2022/01/14 10:50:56;;;;;;;12.10;6.07;;;;;;;6.44;72.65;99813.66;4982246;28;20442;-85
2022/01/14 10:53:27;;;;;;;10.23;5.33;;;;;;;6.63;71.99;99841.78;4980336;28;20451;-85
2022/01/14 10:55:58;;;;;;;11.23;6.30;;;;;;;6.62;71.75;99839.16;4981846;28;20858;-86
2022/01/14 10:58:26;;;;;;;11.93;6.53;;;;;;;5.44;71.30;99640.22;4978884;28;20506;-85
2022/01/14 11:01:05;;;;;;;14.73;6.97;;;;;;;4.74;70.89;99474.88;4981887;28;20408;-87
2022/01/14 11:04:00;;;;;;;15.43;7.80;;;;;;;6.80;71.01;99832.81;4983853;28;20542;-85
2022/01/14 11:06:34;;;;;;;14.03;6.23;;;;;;;4.60;70.57;99489.00;4981479;28;20160;-85
2022/01/14 11:09:08;;;;;;;13.70;6.20;;;;;;;6.65;70.99;99807.50;4983481;28;20476;-84
2022/01/14 11:11:36;;;;;;;10.77;5.80;;;;;;;5.42;70.92;99571.44;4985262;28;20412;-86
2022/01/14 11:14:03;;;;;;;14.83;7.47;;;;;;;6.68;71.03;99816.91;4995511;28;20457;-86
2022/01/14 11:16:30;;;;;;;15.17;7.03;;;;;;;7.04;71.35;99804.19;4976525;28;20176;-86
2022/01/14 11:18:58;;;;;;;13.53;6.60;;;;;;;4.97;70.97;99473.94;4986620;28;20251;-87
2022/01/14 11:24:13;;;;;;;19.90;10.03;;;;;;;5.57;70.93;99548.22;4977465;28;20816;-85
2022/01/14 11:26:40;;;;;;;24.93;12.07;;;;;;;6.88;71.69;99744.47;4977375;28;20410;-85
2022/01/14 11:29:10;;;;;;;18.97;10.17;;;;;;;6.74;71.02;99744.34;4992282;28;20564;-85
2022/01/14 11:31:37;;;;;;;18.47;8.23;;;;;;;5.17;71.77;99484.50;4991361;28;20179;-85
2022/01/14 11:34:08;;;;;;;17.23;8.00;;;;;;;6.93;71.58;99777.47;4976755;28;20199;-85
2022/01/14 11:36:56;;;;;;;13.27;6.80;;;;;;;6.90;71.11;99762.16;4976567;28;20167;-84
2022/01/14 11:39:24;;;;;;;20.00;9.37;;;;;;;6.99;71.91;99772.81;4978442;28;20404;-84
2022/01/14 11:42:14;;;;;;;53.90;18.20;;;;;;;6.64;71.40;99686.69;4978208;28;20499;-85
2022/01/14 11:44:55;;;;;;;16.83;8.73;;;;;;;5.51;70.58;99497.59;4978055;28;20608;-85
2022/01/14 11:47:24;;;;;;;15.27;8.63;;;;;;;6.84;71.09;99754.25;4978133;28;20168;-84